sensor_id;sensor_type;location;lat;lon;timestamp;temperature;humidity
1468;DHT22;727;48.892;9.544;2022-08-19T00:00:57;20.30;99.90
1468;DHT22;727;48.892;9.544;2022-08-19T00:03:24;20.30;99.90
1468;DHT22;727;48.892;9.544;2022-08-19T00:05:51;20.30;99.90
1468;DHT22;727;48.892;9.544;2022-08-19T00:08:17;20.30;99.90
1468;DHT22;727;48.892;9.544;2022-08-19T00:10:44;20.30;99.90
1468;DHT22;727;48.892;9.544;2022-08-19T00:13:12;20.20;99.90
1468;DHT22;727;48.892;9.544;2022-08-19T00:15:40;20.20;99.90
1468;DHT22;727;48.892;9.544;2022-08-19T00:18:10;20.30;99.90
1468;DHT22;727;48.892;9.544;2022-08-19T00:20:36;20.30;99.90
1468;DHT22;727;48.892;9.544;2022-08-19T00:23:06;20.20;99.90
1468;DHT22;727;48.892;9.544;2022-08-19T00:25:33;20.20;99.90
1468;DHT22;727;48.892;9.544;2022-08-19T00:28:02;20.20;99.90
1468;DHT22;727;48.892;9.544;2022-08-19T00:30:31;20.20;99.90
1468;DHT22;727;48.892;9.544;2022-08-19T00:32:58;20.20;99.90
1468;DHT22;727;48.892;9.544;2022-08-19T00:35:25;20.20;99.90
1468;DHT22;727;48.892;9.544;2022-08-19T00:37:52;20.20;99.90
1468;DHT22;727;48.892;9.544;2022-08-19T00:40:20;20.20;99.90
1468;DHT22;727;48.892;9.544;2022-08-19T00:42:47;20.20;99.90
1468;DHT22;727;48.892;9.544;2022-08-19T00:45:16;20.20;99.90
1468;DHT22;727;48.892;9.544;2022-08-19T00:47:45;20.20;99.90
1468;DHT22;727;48.892;9.544;2022-08-19T00:50:14;20.20;99.90
1468;DHT22;727;48.892;9.544;2022-08-19T00:52:44;20.20;99.90
1468;DHT22;727;48.892;9.544;2022-08-19T00:55:14;20.20;99.90
1468;DHT22;727;48.892;9.544;2022-08-19T00:57:44;20.20;99.90
1468;DHT22;727;48.892;9.544;2022-08-19T01:00:15;20.20;99.90
1468;DHT22;727;48.892;9.544;2022-08-19T01:02:45;20.10;99.90
1468;DHT22;727;48.892;9.544;2022-08-19T01:05:14;20.10;99.90
1468;DHT22;727;48.892;9.544;2022-08-19T01:07:43;20.10;99.90
1468;DHT22;727;48.892;9.544;2022-08-19T01:10:14;20.10;99.90
1468;DHT22;727;48.892;9.544;2022-08-19T01:12:41;20.10;99.90
1468;DHT22;727;48.892;9.544;2022-08-19T01:15:12;20.10;99.90
1468;DHT22;727;48.892;9.544;2022-08-19T01:17:40;20.10;99.90
1468;DHT22;727;48.892;9.544;2022-08-19T01:20:12;20.10;99.90
1468;DHT22;727;48.892;9.544;2022-08-19T01:22:43;20.10;99.90
1468;DHT22;727;48.892;9.544;2022-08-19T01:25:10;20.10;99.90
1468;DHT22;727;48.892;9.544;2022-08-19T01:27:39;20.10;99.90
1468;DHT22;727;48.892;9.544;2022-08-19T01:30:07;20.10;99.90
1468;DHT22;727;48.892;9.544;2022-08-19T01:32:34;20.10;99.90
1468;DHT22;727;48.892;9.544;2022-08-19T01:35:01;20.20;99.90
1468;DHT22;727;48.892;9.544;2022-08-19T01:37:28;20.20;99.90
1468;DHT22;727;48.892;9.544;2022-08-19T01:39:57;20.20;99.90
1468;DHT22;727;48.892;9.544;2022-08-19T01:42:24;20.20;99.90
1468;DHT22;727;48.892;9.544;2022-08-19T01:44:50;20.20;99.90
1468;DHT22;727;48.892;9.544;2022-08-19T01:47:17;20.10;99.90
1468;DHT22;727;48.892;9.544;2022-08-19T01:49:44;20.10;99.90
1468;DHT22;727;48.892;9.544;2022-08-19T01:52:11;20.10;99.90
1468;DHT22;727;48.892;9.544;2022-08-19T01:54:38;20.10;99.90
1468;DHT22;727;48.892;9.544;2022-08-19T01:57:09;20.10;99.90
1468;DHT22;727;48.892;9.544;2022-08-19T01:59:39;20.00;99.90
1468;DHT22;727;48.892;9.544;2022-08-19T02:02:07;20.10;99.90
1468;DHT22;727;48.892;9.544;2022-08-19T02:04:34;20.10;99.90
1468;DHT22;727;48.892;9.544;2022-08-19T02:07:01;20.10;99.90
1468;DHT22;727;48.892;9.544;2022-08-19T02:09:27;20.10;99.90
1468;DHT22;727;48.892;9.544;2022-08-19T02:11:54;20.10;99.90
1468;DHT22;727;48.892;9.544;2022-08-19T02:14:22;20.10;99.90
1468;DHT22;727;48.892;9.544;2022-08-19T02:16:49;20.10;99.90
1468;DHT22;727;48.892;9.544;2022-08-19T02:19:16;20.10;99.90
1468;DHT22;727;48.892;9.544;2022-08-19T02:21:43;20.10;99.90
1468;DHT22;727;48.892;9.544;2022-08-19T02:24:10;20.10;99.90
1468;DHT22;727;48.892;9.544;2022-08-19T02:26:37;20.00;99.90
1468;DHT22;727;48.892;9.544;2022-08-19T02:29:04;20.00;99.90
1468;DHT22;727;48.892;9.544;2022-08-19T02:31:32;20.00;99.90
1468;DHT22;727;48.892;9.544;2022-08-19T02:33:59;20.00;99.90
1468;DHT22;727;48.892;9.544;2022-08-19T02:36:26;19.90;99.90
1468;DHT22;727;48.892;9.544;2022-08-19T02:38:53;19.90;99.90
1468;DHT22;727;48.892;9.544;2022-08-19T02:41:21;19.90;99.90
1468;DHT22;727;48.892;9.544;2022-08-19T02:43:48;19.90;99.90
1468;DHT22;727;48.892;9.544;2022-08-19T02:46:17;19.90;99.90
1468;DHT22;727;48.892;9.544;2022-08-19T02:48:48;19.80;99.90
1468;DHT22;727;48.892;9.544;2022-08-19T02:51:17;19.80;99.90
1468;DHT22;727;48.892;9.544;2022-08-19T02:53:44;19.80;99.90
1468;DHT22;727;48.892;9.544;2022-08-19T02:56:11;19.80;99.90
1468;DHT22;727;48.892;9.544;2022-08-19T02:58:37;19.80;99.90
1468;DHT22;727;48.892;9.544;2022-08-19T03:01:04;19.80;99.90
1468;DHT22;727;48.892;9.544;2022-08-19T03:03:31;19.90;99.90
1468;DHT22;727;48.892;9.544;2022-08-19T03:06:08;19.80;99.90
1468;DHT22;727;48.892;9.544;2022-08-19T03:08:36;19.80;99.90
1468;DHT22;727;48.892;9.544;2022-08-19T03:11:04;19.80;99.90
1468;DHT22;727;48.892;9.544;2022-08-19T03:13:31;19.90;99.90
1468;DHT22;727;48.892;9.544;2022-08-19T03:15:58;19.80;99.90
1468;DHT22;727;48.892;9.544;2022-08-19T03:18:24;19.70;99.90
1468;DHT22;727;48.892;9.544;2022-08-19T03:20:52;19.70;99.90
1468;DHT22;727;48.892;9.544;2022-08-19T03:23:22;19.60;99.90
1468;DHT22;727;48.892;9.544;2022-08-19T03:25:52;19.50;99.90
1468;DHT22;727;48.892;9.544;2022-08-19T03:28:20;19.40;99.90
1468;DHT22;727;48.892;9.544;2022-08-19T03:30:58;19.30;99.90
1468;DHT22;727;48.892;9.544;2022-08-19T03:33:26;19.30;99.90
1468;DHT22;727;48.892;9.544;2022-08-19T03:36:00;19.30;99.90
1468;DHT22;727;48.892;9.544;2022-08-19T03:38:29;19.30;99.90
1468;DHT22;727;48.892;9.544;2022-08-19T03:40:56;19.20;99.90
1468;DHT22;727;48.892;9.544;2022-08-19T03:43:22;19.20;99.90
1468;DHT22;727;48.892;9.544;2022-08-19T03:45:59;19.20;99.90
1468;DHT22;727;48.892;9.544;2022-08-19T03:48:26;19.10;99.90
1468;DHT22;727;48.892;9.544;2022-08-19T03:50:53;19.10;99.90
1468;DHT22;727;48.892;9.544;2022-08-19T03:53:19;19.10;99.90
1468;DHT22;727;48.892;9.544;2022-08-19T03:55:47;19.10;99.90
1468;DHT22;727;48.892;9.544;2022-08-19T03:58:14;19.10;99.90
1468;DHT22;727;48.892;9.544;2022-08-19T04:00:42;19.00;99.90
1468;DHT22;727;48.892;9.544;2022-08-19T04:03:09;19.00;99.90
1468;DHT22;727;48.892;9.544;2022-08-19T04:05:35;19.00;99.90
1468;DHT22;727;48.892;9.544;2022-08-19T04:08:03;18.90;99.90
1468;DHT22;727;48.892;9.544;2022-08-19T04:10:31;18.90;99.90
1468;DHT22;727;48.892;9.544;2022-08-19T04:12:59;18.90;99.90
1468;DHT22;727;48.892;9.544;2022-08-19T04:15:26;18.90;99.90
1468;DHT22;727;48.892;9.544;2022-08-19T04:17:54;18.80;99.90
1468;DHT22;727;48.892;9.544;2022-08-19T04:20:22;18.80;99.90
1468;DHT22;727;48.892;9.544;2022-08-19T04:22:48;18.80;99.90
1468;DHT22;727;48.892;9.544;2022-08-19T04:25:15;18.80;99.90
1468;DHT22;727;48.892;9.544;2022-08-19T04:27:41;18.80;99.90
1468;DHT22;727;48.892;9.544;2022-08-19T04:30:13;18.80;99.90
1468;DHT22;727;48.892;9.544;2022-08-19T04:32:40;18.90;99.90
1468;DHT22;727;48.892;9.544;2022-08-19T04:35:09;18.80;99.90
1468;DHT22;727;48.892;9.544;2022-08-19T04:37:35;18.90;99.90
1468;DHT22;727;48.892;9.544;2022-08-19T04:40:05;18.90;99.90
1468;DHT22;727;48.892;9.544;2022-08-19T04:42:49;18.90;99.90
1468;DHT22;727;48.892;9.544;2022-08-19T04:45:18;18.90;99.90
1468;DHT22;727;48.892;9.544;2022-08-19T04:47:44;18.90;99.90
1468;DHT22;727;48.892;9.544;2022-08-19T04:50:11;19.00;99.90
1468;DHT22;727;48.892;9.544;2022-08-19T04:52:38;19.00;99.90
1468;DHT22;727;48.892;9.544;2022-08-19T04:55:08;19.00;99.90
1468;DHT22;727;48.892;9.544;2022-08-19T04:57:35;19.10;99.90
1468;DHT22;727;48.892;9.544;2022-08-19T05:00:07;19.10;99.90
1468;DHT22;727;48.892;9.544;2022-08-19T05:02:35;19.20;99.90
1468;DHT22;727;48.892;9.544;2022-08-19T05:05:03;19.20;99.90
1468;DHT22;727;48.892;9.544;2022-08-19T05:07:31;19.20;99.90
1468;DHT22;727;48.892;9.544;2022-08-19T05:09:57;19.30;99.90
1468;DHT22;727;48.892;9.544;2022-08-19T05:12:25;19.20;99.90
1468;DHT22;727;48.892;9.544;2022-08-19T05:14:52;19.30;99.90
1468;DHT22;727;48.892;9.544;2022-08-19T05:17:19;19.30;99.90
1468;DHT22;727;48.892;9.544;2022-08-19T05:19:47;19.30;99.90
1468;DHT22;727;48.892;9.544;2022-08-19T05:22:31;19.30;99.90
1468;DHT22;727;48.892;9.544;2022-08-19T05:25:03;19.30;99.90
1468;DHT22;727;48.892;9.544;2022-08-19T05:27:30;19.40;99.90
1468;DHT22;727;48.892;9.544;2022-08-19T05:29:56;19.30;99.90
1468;DHT22;727;48.892;9.544;2022-08-19T05:32:23;19.30;99.90
1468;DHT22;727;48.892;9.544;2022-08-19T05:34:51;19.40;99.90
1468;DHT22;727;48.892;9.544;2022-08-19T05:37:18;19.40;99.90
1468;DHT22;727;48.892;9.544;2022-08-19T05:39:44;19.40;99.90
1468;DHT22;727;48.892;9.544;2022-08-19T05:42:12;19.40;99.90
1468;DHT22;727;48.892;9.544;2022-08-19T05:44:40;19.40;99.90
1468;DHT22;727;48.892;9.544;2022-08-19T05:47:09;19.40;99.90
1468;DHT22;727;48.892;9.544;2022-08-19T05:49:36;19.40;99.90
1468;DHT22;727;48.892;9.544;2022-08-19T05:52:07;19.50;99.90
1468;DHT22;727;48.892;9.544;2022-08-19T05:54:34;19.50;99.90
1468;DHT22;727;48.892;9.544;2022-08-19T05:57:05;19.50;99.90
1468;DHT22;727;48.892;9.544;2022-08-19T05:59:32;19.50;99.90
1468;DHT22;727;48.892;9.544;2022-08-19T06:02:01;19.50;99.90
1468;DHT22;727;48.892;9.544;2022-08-19T06:04:28;19.60;99.90
1468;DHT22;727;48.892;9.544;2022-08-19T06:06:55;19.60;99.90
1468;DHT22;727;48.892;9.544;2022-08-19T06:09:23;19.60;99.90
1468;DHT22;727;48.892;9.544;2022-08-19T06:11:51;19.60;99.90
1468;DHT22;727;48.892;9.544;2022-08-19T06:14:23;19.60;99.90
1468;DHT22;727;48.892;9.544;2022-08-19T06:16:50;19.70;99.90
1468;DHT22;727;48.892;9.544;2022-08-19T06:19:18;19.70;99.90
1468;DHT22;727;48.892;9.544;2022-08-19T06:21:47;19.70;99.90
1468;DHT22;727;48.892;9.544;2022-08-19T06:24:16;19.70;99.90
1468;DHT22;727;48.892;9.544;2022-08-19T06:26:47;19.80;99.90
1468;DHT22;727;48.892;9.544;2022-08-19T06:29:15;19.80;99.90
1468;DHT22;727;48.892;9.544;2022-08-19T06:31:45;19.80;99.90
1468;DHT22;727;48.892;9.544;2022-08-19T06:34:13;19.90;99.90
1468;DHT22;727;48.892;9.544;2022-08-19T06:36:42;20.00;99.90
1468;DHT22;727;48.892;9.544;2022-08-19T06:39:12;20.00;99.90
1468;DHT22;727;48.892;9.544;2022-08-19T06:41:41;20.10;99.90
1468;DHT22;727;48.892;9.544;2022-08-19T06:44:11;20.20;99.90
1468;DHT22;727;48.892;9.544;2022-08-19T06:46:38;20.30;99.90
1468;DHT22;727;48.892;9.544;2022-08-19T06:49:06;20.40;99.90
1468;DHT22;727;48.892;9.544;2022-08-19T06:51:37;20.60;99.90
1468;DHT22;727;48.892;9.544;2022-08-19T06:54:04;20.70;99.90
1468;DHT22;727;48.892;9.544;2022-08-19T06:56:31;20.80;99.90
1468;DHT22;727;48.892;9.544;2022-08-19T06:59:00;20.80;99.90
1468;DHT22;727;48.892;9.544;2022-08-19T07:01:28;20.80;99.90
1468;DHT22;727;48.892;9.544;2022-08-19T07:03:55;20.80;99.90
1468;DHT22;727;48.892;9.544;2022-08-19T07:06:27;20.80;99.90
1468;DHT22;727;48.892;9.544;2022-08-19T07:08:56;20.80;99.90
1468;DHT22;727;48.892;9.544;2022-08-19T07:11:24;20.80;99.90
1468;DHT22;727;48.892;9.544;2022-08-19T07:13:52;20.70;99.90
1468;DHT22;727;48.892;9.544;2022-08-19T07:16:20;20.70;99.90
1468;DHT22;727;48.892;9.544;2022-08-19T07:18:49;20.60;99.90
1468;DHT22;727;48.892;9.544;2022-08-19T07:21:18;20.60;99.90
1468;DHT22;727;48.892;9.544;2022-08-19T07:23:47;20.50;99.90
1468;DHT22;727;48.892;9.544;2022-08-19T07:26:16;20.40;99.90
1468;DHT22;727;48.892;9.544;2022-08-19T07:28:44;20.40;99.90
1468;DHT22;727;48.892;9.544;2022-08-19T07:31:13;20.30;99.90
1468;DHT22;727;48.892;9.544;2022-08-19T07:33:41;20.30;99.90
1468;DHT22;727;48.892;9.544;2022-08-19T07:36:11;20.20;99.90
1468;DHT22;727;48.892;9.544;2022-08-19T07:38:43;20.20;99.90
1468;DHT22;727;48.892;9.544;2022-08-19T07:41:12;20.10;99.90
1468;DHT22;727;48.892;9.544;2022-08-19T07:43:40;20.00;99.90
1468;DHT22;727;48.892;9.544;2022-08-19T07:46:09;20.10;99.90
1468;DHT22;727;48.892;9.544;2022-08-19T07:48:36;20.10;99.90
1468;DHT22;727;48.892;9.544;2022-08-19T07:51:06;20.10;99.90
1468;DHT22;727;48.892;9.544;2022-08-19T07:53:36;20.20;99.90
1468;DHT22;727;48.892;9.544;2022-08-19T07:56:04;20.30;99.90
1468;DHT22;727;48.892;9.544;2022-08-19T07:58:33;20.40;99.90
1468;DHT22;727;48.892;9.544;2022-08-19T08:01:01;20.50;99.90
1468;DHT22;727;48.892;9.544;2022-08-19T08:03:28;20.50;99.90
1468;DHT22;727;48.892;9.544;2022-08-19T08:06:09;20.60;99.90
1468;DHT22;727;48.892;9.544;2022-08-19T08:08:57;20.60;99.90
1468;DHT22;727;48.892;9.544;2022-08-19T08:11:50;20.60;99.90
1468;DHT22;727;48.892;9.544;2022-08-19T08:14:19;20.60;99.90
1468;DHT22;727;48.892;9.544;2022-08-19T08:16:47;20.60;99.90
1468;DHT22;727;48.892;9.544;2022-08-19T08:19:17;20.60;99.90
1468;DHT22;727;48.892;9.544;2022-08-19T08:21:44;20.70;99.90
1468;DHT22;727;48.892;9.544;2022-08-19T08:24:12;20.60;99.90
1468;DHT22;727;48.892;9.544;2022-08-19T08:26:40;20.50;99.90
1468;DHT22;727;48.892;9.544;2022-08-19T08:29:07;20.50;99.90
1468;DHT22;727;48.892;9.544;2022-08-19T08:31:36;20.50;99.90
1468;DHT22;727;48.892;9.544;2022-08-19T08:34:02;20.50;99.90
1468;DHT22;727;48.892;9.544;2022-08-19T08:36:29;20.60;99.90
1468;DHT22;727;48.892;9.544;2022-08-19T08:38:59;20.70;99.90
1468;DHT22;727;48.892;9.544;2022-08-19T08:41:31;20.80;99.90
1468;DHT22;727;48.892;9.544;2022-08-19T08:44:02;20.80;99.90
1468;DHT22;727;48.892;9.544;2022-08-19T08:46:35;20.90;99.90
1468;DHT22;727;48.892;9.544;2022-08-19T08:49:07;21.10;99.90
1468;DHT22;727;48.892;9.544;2022-08-19T08:51:40;21.10;99.90
1468;DHT22;727;48.892;9.544;2022-08-19T08:54:10;21.20;99.90
1468;DHT22;727;48.892;9.544;2022-08-19T08:56:39;21.30;99.90
1468;DHT22;727;48.892;9.544;2022-08-19T08:59:15;21.30;99.90
1468;DHT22;727;48.892;9.544;2022-08-19T09:01:43;21.20;99.90
1468;DHT22;727;48.892;9.544;2022-08-19T09:04:12;21.30;99.90
1468;DHT22;727;48.892;9.544;2022-08-19T09:06:44;21.30;99.90
1468;DHT22;727;48.892;9.544;2022-08-19T09:09:17;21.30;99.90
1468;DHT22;727;48.892;9.544;2022-08-19T09:11:57;21.30;99.90
1468;DHT22;727;48.892;9.544;2022-08-19T09:14:37;21.30;99.90
1468;DHT22;727;48.892;9.544;2022-08-19T09:17:07;21.30;99.90
1468;DHT22;727;48.892;9.544;2022-08-19T09:19:34;21.30;99.90
1468;DHT22;727;48.892;9.544;2022-08-19T09:22:01;21.20;99.90
1468;DHT22;727;48.892;9.544;2022-08-19T09:24:28;21.20;99.90
1468;DHT22;727;48.892;9.544;2022-08-19T09:26:56;21.20;99.90
1468;DHT22;727;48.892;9.544;2022-08-19T09:29:22;21.30;99.90
1468;DHT22;727;48.892;9.544;2022-08-19T09:31:49;21.40;99.90
1468;DHT22;727;48.892;9.544;2022-08-19T09:34:16;21.40;99.90
1468;DHT22;727;48.892;9.544;2022-08-19T09:36:45;21.40;99.90
1468;DHT22;727;48.892;9.544;2022-08-19T09:39:11;21.40;99.90
1468;DHT22;727;48.892;9.544;2022-08-19T09:41:38;21.40;99.90
1468;DHT22;727;48.892;9.544;2022-08-19T09:44:06;21.30;99.90
1468;DHT22;727;48.892;9.544;2022-08-19T09:46:33;21.30;99.90
1468;DHT22;727;48.892;9.544;2022-08-19T09:49:01;21.30;99.90
1468;DHT22;727;48.892;9.544;2022-08-19T09:51:30;21.10;99.90
1468;DHT22;727;48.892;9.544;2022-08-19T09:54:00;21.10;99.90
1468;DHT22;727;48.892;9.544;2022-08-19T09:56:28;21.00;99.90
1468;DHT22;727;48.892;9.544;2022-08-19T09:58:57;21.00;99.90
1468;DHT22;727;48.892;9.544;2022-08-19T10:01:26;21.10;99.90
1468;DHT22;727;48.892;9.544;2022-08-19T10:03:56;21.20;99.90
1468;DHT22;727;48.892;9.544;2022-08-19T10:06:24;21.40;99.90
1468;DHT22;727;48.892;9.544;2022-08-19T10:08:54;21.60;99.90
1468;DHT22;727;48.892;9.544;2022-08-19T10:11:21;21.80;99.90
1468;DHT22;727;48.892;9.544;2022-08-19T10:13:48;22.00;99.90
1468;DHT22;727;48.892;9.544;2022-08-19T10:16:17;22.00;99.90
1468;DHT22;727;48.892;9.544;2022-08-19T10:18:46;22.00;99.90
1468;DHT22;727;48.892;9.544;2022-08-19T10:21:16;22.10;99.90
1468;DHT22;727;48.892;9.544;2022-08-19T10:23:45;22.20;99.90
1468;DHT22;727;48.892;9.544;2022-08-19T10:26:18;22.30;99.90
1468;DHT22;727;48.892;9.544;2022-08-19T10:28:45;22.40;99.90
1468;DHT22;727;48.892;9.544;2022-08-19T10:31:14;22.50;99.90
1468;DHT22;727;48.892;9.544;2022-08-19T10:33:43;22.50;99.90
1468;DHT22;727;48.892;9.544;2022-08-19T10:36:13;22.50;99.90
1468;DHT22;727;48.892;9.544;2022-08-19T10:38:43;22.40;99.90
1468;DHT22;727;48.892;9.544;2022-08-19T10:41:12;22.40;99.90
1468;DHT22;727;48.892;9.544;2022-08-19T10:43:39;22.30;99.90
1468;DHT22;727;48.892;9.544;2022-08-19T10:46:07;22.20;99.90
1468;DHT22;727;48.892;9.544;2022-08-19T10:48:35;22.20;99.90
1468;DHT22;727;48.892;9.544;2022-08-19T10:51:02;22.10;99.90
1468;DHT22;727;48.892;9.544;2022-08-19T10:53:48;22.10;99.90
1468;DHT22;727;48.892;9.544;2022-08-19T10:56:15;22.00;99.90
1468;DHT22;727;48.892;9.544;2022-08-19T10:59:00;22.00;99.90
1468;DHT22;727;48.892;9.544;2022-08-19T11:01:28;22.10;99.90
1468;DHT22;727;48.892;9.544;2022-08-19T11:03:56;22.10;99.90
1468;DHT22;727;48.892;9.544;2022-08-19T11:06:24;22.10;99.90
1468;DHT22;727;48.892;9.544;2022-08-19T11:08:53;22.00;99.90
1468;DHT22;727;48.892;9.544;2022-08-19T11:11:20;21.90;99.90
1468;DHT22;727;48.892;9.544;2022-08-19T11:13:48;21.90;99.90
1468;DHT22;727;48.892;9.544;2022-08-19T11:16:16;21.80;99.90
1468;DHT22;727;48.892;9.544;2022-08-19T11:18:45;21.80;99.90
1468;DHT22;727;48.892;9.544;2022-08-19T11:21:17;21.70;99.90
1468;DHT22;727;48.892;9.544;2022-08-19T11:23:45;21.70;99.90
1468;DHT22;727;48.892;9.544;2022-08-19T11:26:14;21.60;99.90
1468;DHT22;727;48.892;9.544;2022-08-19T11:28:41;21.50;99.90
1468;DHT22;727;48.892;9.544;2022-08-19T11:31:12;21.40;99.90
1468;DHT22;727;48.892;9.544;2022-08-19T11:33:39;21.30;99.90
1468;DHT22;727;48.892;9.544;2022-08-19T11:36:06;21.30;99.90
1468;DHT22;727;48.892;9.544;2022-08-19T11:38:34;21.20;99.90
1468;DHT22;727;48.892;9.544;2022-08-19T11:41:03;21.20;99.90
1468;DHT22;727;48.892;9.544;2022-08-19T11:43:31;21.10;99.90
1468;DHT22;727;48.892;9.544;2022-08-19T11:45:58;21.00;99.90
1468;DHT22;727;48.892;9.544;2022-08-19T11:48:25;21.00;99.90
1468;DHT22;727;48.892;9.544;2022-08-19T11:50:53;21.00;99.90
1468;DHT22;727;48.892;9.544;2022-08-19T11:53:20;20.90;99.90
1468;DHT22;727;48.892;9.544;2022-08-19T11:55:48;20.90;99.90
1468;DHT22;727;48.892;9.544;2022-08-19T11:58:16;20.90;99.90
1468;DHT22;727;48.892;9.544;2022-08-19T12:00:44;20.90;99.90
1468;DHT22;727;48.892;9.544;2022-08-19T12:03:12;20.90;99.90
1468;DHT22;727;48.892;9.544;2022-08-19T12:05:40;20.80;99.90
1468;DHT22;727;48.892;9.544;2022-08-19T12:08:07;20.90;99.90
1468;DHT22;727;48.892;9.544;2022-08-19T12:10:35;21.00;99.90
1468;DHT22;727;48.892;9.544;2022-08-19T12:13:02;21.00;99.90
1468;DHT22;727;48.892;9.544;2022-08-19T12:15:29;21.00;99.90
1468;DHT22;727;48.892;9.544;2022-08-19T12:17:57;21.00;99.90
1468;DHT22;727;48.892;9.544;2022-08-19T12:20:24;21.00;99.90
1468;DHT22;727;48.892;9.544;2022-08-19T12:22:51;21.00;99.90
1468;DHT22;727;48.892;9.544;2022-08-19T12:25:18;20.90;99.90
1468;DHT22;727;48.892;9.544;2022-08-19T12:27:46;20.90;99.90
1468;DHT22;727;48.892;9.544;2022-08-19T12:30:14;20.80;99.90
1468;DHT22;727;48.892;9.544;2022-08-19T12:32:41;20.90;99.90
1468;DHT22;727;48.892;9.544;2022-08-19T12:35:09;20.80;99.90
1468;DHT22;727;48.892;9.544;2022-08-19T12:37:37;20.90;99.90
1468;DHT22;727;48.892;9.544;2022-08-19T12:40:04;20.80;99.90
1468;DHT22;727;48.892;9.544;2022-08-19T12:42:31;20.80;99.90
1468;DHT22;727;48.892;9.544;2022-08-19T12:44:58;20.80;99.90
1468;DHT22;727;48.892;9.544;2022-08-19T12:47:24;20.90;99.90
1468;DHT22;727;48.892;9.544;2022-08-19T12:49:52;20.90;99.90
1468;DHT22;727;48.892;9.544;2022-08-19T12:52:22;20.90;99.90
1468;DHT22;727;48.892;9.544;2022-08-19T12:54:50;21.00;99.90
1468;DHT22;727;48.892;9.544;2022-08-19T12:57:17;20.90;99.90
1468;DHT22;727;48.892;9.544;2022-08-19T12:59:44;20.90;99.90
1468;DHT22;727;48.892;9.544;2022-08-19T13:02:10;20.90;99.90
1468;DHT22;727;48.892;9.544;2022-08-19T13:04:37;20.90;99.90
1468;DHT22;727;48.892;9.544;2022-08-19T13:07:06;20.90;99.90
1468;DHT22;727;48.892;9.544;2022-08-19T13:09:35;20.90;99.90
1468;DHT22;727;48.892;9.544;2022-08-19T13:12:02;20.90;99.90
1468;DHT22;727;48.892;9.544;2022-08-19T13:14:33;20.90;99.90
1468;DHT22;727;48.892;9.544;2022-08-19T13:17:00;20.80;99.90
1468;DHT22;727;48.892;9.544;2022-08-19T13:19:26;20.80;99.90
1468;DHT22;727;48.892;9.544;2022-08-19T13:21:53;20.70;99.90
1468;DHT22;727;48.892;9.544;2022-08-19T13:24:21;20.70;99.90
1468;DHT22;727;48.892;9.544;2022-08-19T13:26:49;20.70;99.90
1468;DHT22;727;48.892;9.544;2022-08-19T13:29:15;20.70;99.90
1468;DHT22;727;48.892;9.544;2022-08-19T13:32:00;20.60;99.90
1468;DHT22;727;48.892;9.544;2022-08-19T13:34:44;20.50;99.90
1468;DHT22;727;48.892;9.544;2022-08-19T13:37:12;20.60;99.90
1468;DHT22;727;48.892;9.544;2022-08-19T13:39:39;20.50;99.90
1468;DHT22;727;48.892;9.544;2022-08-19T13:42:07;20.60;99.90
1468;DHT22;727;48.892;9.544;2022-08-19T13:44:35;20.50;99.90
1468;DHT22;727;48.892;9.544;2022-08-19T13:47:03;20.60;99.90
1468;DHT22;727;48.892;9.544;2022-08-19T13:49:32;20.50;99.90
1468;DHT22;727;48.892;9.544;2022-08-19T13:51:59;20.60;99.90
1468;DHT22;727;48.892;9.544;2022-08-19T13:54:25;20.60;99.90
1468;DHT22;727;48.892;9.544;2022-08-19T13:56:53;20.70;99.90
1468;DHT22;727;48.892;9.544;2022-08-19T13:59:21;20.70;99.90
1468;DHT22;727;48.892;9.544;2022-08-19T14:01:48;20.70;99.90
1468;DHT22;727;48.892;9.544;2022-08-19T14:04:15;20.80;99.90
1468;DHT22;727;48.892;9.544;2022-08-19T14:06:42;20.90;99.90
1468;DHT22;727;48.892;9.544;2022-08-19T14:09:08;21.00;99.90
1468;DHT22;727;48.892;9.544;2022-08-19T14:11:35;21.10;99.90
1468;DHT22;727;48.892;9.544;2022-08-19T14:14:02;21.20;99.90
1468;DHT22;727;48.892;9.544;2022-08-19T14:16:30;21.30;99.90
1468;DHT22;727;48.892;9.544;2022-08-19T14:18:57;21.40;99.90
1468;DHT22;727;48.892;9.544;2022-08-19T14:21:24;21.50;99.90
1468;DHT22;727;48.892;9.544;2022-08-19T14:23:51;21.60;99.90
1468;DHT22;727;48.892;9.544;2022-08-19T14:26:20;21.60;99.90
1468;DHT22;727;48.892;9.544;2022-08-19T14:28:47;21.60;99.90
1468;DHT22;727;48.892;9.544;2022-08-19T14:31:16;21.60;99.90
1468;DHT22;727;48.892;9.544;2022-08-19T14:33:45;21.60;99.90
1468;DHT22;727;48.892;9.544;2022-08-19T14:36:12;21.60;99.90
1468;DHT22;727;48.892;9.544;2022-08-19T14:38:40;21.70;99.90
1468;DHT22;727;48.892;9.544;2022-08-19T14:41:12;21.70;99.90
1468;DHT22;727;48.892;9.544;2022-08-19T14:43:39;21.70;99.90
1468;DHT22;727;48.892;9.544;2022-08-19T14:46:05;21.80;99.90
1468;DHT22;727;48.892;9.544;2022-08-19T14:48:33;21.90;99.90
1468;DHT22;727;48.892;9.544;2022-08-19T14:51:03;21.90;99.90
1468;DHT22;727;48.892;9.544;2022-08-19T14:53:29;21.90;99.90
1468;DHT22;727;48.892;9.544;2022-08-19T14:55:59;22.00;99.90
1468;DHT22;727;48.892;9.544;2022-08-19T14:58:26;22.10;99.90
1468;DHT22;727;48.892;9.544;2022-08-19T15:00:52;22.20;99.90
1468;DHT22;727;48.892;9.544;2022-08-19T15:03:19;22.30;99.90
1468;DHT22;727;48.892;9.544;2022-08-19T15:05:46;22.30;99.90
1468;DHT22;727;48.892;9.544;2022-08-19T15:08:14;22.20;99.90
1468;DHT22;727;48.892;9.544;2022-08-19T15:10:40;22.30;99.90
1468;DHT22;727;48.892;9.544;2022-08-19T15:13:07;22.30;99.90
1468;DHT22;727;48.892;9.544;2022-08-19T15:15:34;22.20;99.90
1468;DHT22;727;48.892;9.544;2022-08-19T15:18:01;22.10;99.90
1468;DHT22;727;48.892;9.544;2022-08-19T15:20:29;22.10;99.90
1468;DHT22;727;48.892;9.544;2022-08-19T15:22:56;22.00;99.90
1468;DHT22;727;48.892;9.544;2022-08-19T15:25:25;21.80;99.90
1468;DHT22;727;48.892;9.544;2022-08-19T15:27:52;21.70;99.90
1468;DHT22;727;48.892;9.544;2022-08-19T15:30:20;21.60;99.90
1468;DHT22;727;48.892;9.544;2022-08-19T15:32:48;21.50;99.90
1468;DHT22;727;48.892;9.544;2022-08-19T15:35:15;21.40;99.90
1468;DHT22;727;48.892;9.544;2022-08-19T15:37:43;21.30;99.90
1468;DHT22;727;48.892;9.544;2022-08-19T15:40:11;21.20;99.90
1468;DHT22;727;48.892;9.544;2022-08-19T15:42:39;21.10;99.90
1468;DHT22;727;48.892;9.544;2022-08-19T15:45:09;21.00;99.90
1468;DHT22;727;48.892;9.544;2022-08-19T15:47:36;20.90;99.90
1468;DHT22;727;48.892;9.544;2022-08-19T15:50:05;20.70;99.90
1468;DHT22;727;48.892;9.544;2022-08-19T15:52:32;20.70;99.90
1468;DHT22;727;48.892;9.544;2022-08-19T15:54:59;20.60;99.90
1468;DHT22;727;48.892;9.544;2022-08-19T15:57:26;20.50;99.90
1468;DHT22;727;48.892;9.544;2022-08-19T16:00:12;20.40;99.90
1468;DHT22;727;48.892;9.544;2022-08-19T16:02:56;20.40;99.90
1468;DHT22;727;48.892;9.544;2022-08-19T16:05:40;20.40;99.90
1468;DHT22;727;48.892;9.544;2022-08-19T16:08:24;20.40;99.90
1468;DHT22;727;48.892;9.544;2022-08-19T16:10:51;20.30;99.90
1468;DHT22;727;48.892;9.544;2022-08-19T16:13:18;20.30;99.90
1468;DHT22;727;48.892;9.544;2022-08-19T16:15:46;20.20;99.90
1468;DHT22;727;48.892;9.544;2022-08-19T16:18:12;20.20;99.90
1468;DHT22;727;48.892;9.544;2022-08-19T16:20:40;20.20;99.90
1468;DHT22;727;48.892;9.544;2022-08-19T16:23:06;20.10;99.90
1468;DHT22;727;48.892;9.544;2022-08-19T16:25:33;20.20;99.90